Time;durP1;ratioP1;P1;durP2;ratioP2;P2;SDS_P1;SDS_P2;PMS_P1;PMS_P2;Temp;Humidity;BMP_temperature;BMP_pressure;BME280_temperature;BME280_humidity;BME280_pressure;Samples;Min_cycle;Max_cycle;Signal;HPM_P1;HPM_P2
2022/04/18 00:01:09;;;;;;;1.67;1.57;;;;;;;;;;5020035;28;20614;-56
2022/04/18 00:03:56;;;;;;;1.40;1.30;;;;;;;;;;5020369;28;20264;-56
2022/04/18 00:06:43;;;;;;;1.50;1.40;;;;;;;;;;5017228;28;20290;-55
2022/04/18 00:09:33;;;;;;;1.93;1.50;;;;;;;;;;5021622;28;20280;-57
2022/04/18 00:12:20;;;;;;;1.43;1.43;;;;;;;;;;5020135;28;20239;-56
2022/04/18 00:15:08;;;;;;;1.20;1.20;;;;;;;;;;5024582;28;20210;-57
2022/04/18 00:17:55;;;;;;;1.47;1.33;;;;;;;;;;5016524;28;20285;-57
2022/04/18 00:20:42;;;;;;;1.60;1.50;;;;;;;;;;5021349;28;20253;-56
2022/04/18 00:23:29;;;;;;;1.50;1.50;;;;;;;;;;5020547;28;20341;-56
2022/04/18 00:26:17;;;;;;;1.40;1.40;;;;;;;;;;5023391;28;20676;-56
2022/04/18 00:29:04;;;;;;;1.10;1.10;;;;;;;;;;5023070;28;20205;-55
2022/04/18 00:31:51;;;;;;;1.20;1.20;;;;;;;;;;5023678;28;20361;-56
2022/04/18 00:34:38;;;;;;;1.40;1.30;;;;;;;;;;5017306;28;20215;-56
2022/04/18 00:37:25;;;;;;;1.23;1.23;;;;;;;;;;5022585;28;20695;-56
2022/04/18 00:40:12;;;;;;;1.10;1.10;;;;;;;;;;5023957;28;20269;-56
2022/04/18 00:43:04;;;;;;;1.30;1.20;;;;;;;;;;5020421;28;20335;-56
2022/04/18 00:45:51;;;;;;;1.30;1.30;;;;;;;;;;5025623;28;20211;-56
2022/04/18 00:48:39;;;;;;;1.47;1.37;;;;;;;;;;5024105;28;20316;-56
2022/04/18 00:51:28;;;;;;;1.33;1.33;;;;;;;;;;5018382;28;20247;-56
2022/04/18 00:54:15;;;;;;;1.23;1.23;;;;;;;;;;5022466;28;20245;-56
2022/04/18 00:57:03;;;;;;;1.03;1.03;;;;;;;;;;5020903;28;20242;-56
2022/04/18 00:59:51;;;;;;;1.60;1.10;;;;;;;;;;5015484;28;20310;-56
2022/04/18 01:02:38;;;;;;;1.30;1.30;;;;;;;;;;5021676;28;20269;-56
2022/04/18 01:05:25;;;;;;;1.60;1.50;;;;;;;;;;5022715;28;20217;-56
2022/04/18 01:08:12;;;;;;;1.57;1.47;;;;;;;;;;5018576;28;20294;-57
2022/04/18 01:10:59;;;;;;;1.10;1.10;;;;;;;;;;5022305;28;20336;-56
2022/04/18 01:13:48;;;;;;;1.20;1.20;;;;;;;;;;5020305;28;20591;-56
2022/04/18 01:16:36;;;;;;;1.87;1.23;;;;;;;;;;5023286;28;20212;-56
2022/04/18 01:19:23;;;;;;;1.20;1.20;;;;;;;;;;5018209;28;20627;-56
2022/04/18 01:22:12;;;;;;;1.10;1.10;;;;;;;;;;5023347;28;20596;-56
2022/04/18 01:31:09;;;;;;;1.10;1.10;;;;;;;;;;5015151;28;20199;-56
2022/04/18 01:33:56;;;;;;;1.10;1.10;;;;;;;;;;5023286;28;20203;-56
2022/04/18 01:36:43;;;;;;;1.30;1.30;;;;;;;;;;5022714;28;20242;-56
2022/04/18 01:39:31;;;;;;;1.30;1.30;;;;;;;;;;5020202;28;20223;-56
2022/04/18 01:42:18;;;;;;;1.10;1.10;;;;;;;;;;5019135;28;20324;-56
2022/04/18 01:45:06;;;;;;;1.00;1.00;;;;;;;;;;5021934;28;20293;-56
2022/04/18 01:47:53;;;;;;;1.20;1.10;;;;;;;;;;5016952;28;20297;-57
2022/04/18 01:50:40;;;;;;;1.40;1.37;;;;;;;;;;5019729;28;20206;-57
2022/04/18 01:53:30;;;;;;;1.50;1.40;;;;;;;;;;5022191;28;20310;-56
2022/04/18 01:56:18;;;;;;;1.37;1.37;;;;;;;;;;5019390;28;20222;-57
2022/04/18 01:59:05;;;;;;;2.00;1.40;;;;;;;;;;5017356;28;20251;-56
2022/04/18 02:01:52;;;;;;;1.50;1.43;;;;;;;;;;5023334;28;20271;-56
2022/04/18 02:04:40;;;;;;;1.50;1.50;;;;;;;;;;5023324;28;20235;-56
2022/04/18 02:07:27;;;;;;;1.00;1.00;;;;;;;;;;5020344;28;20288;-56
2022/04/18 02:10:14;;;;;;;1.10;1.10;;;;;;;;;;5025244;28;20313;-56
2022/04/18 02:13:02;;;;;;;1.30;1.20;;;;;;;;;;5025922;28;20246;-56
2022/04/18 02:15:49;;;;;;;1.27;1.27;;;;;;;;;;5023396;28;20212;-56
2022/04/18 02:18:36;;;;;;;1.10;1.10;;;;;;;;;;5022872;28;20297;-56
2022/04/18 02:21:23;;;;;;;1.10;1.10;;;;;;;;;;5020048;28;20639;-56
2022/04/18 02:24:11;;;;;;;1.50;1.40;;;;;;;;;;5023796;28;20216;-56
2022/04/18 02:26:58;;;;;;;0.90;0.90;;;;;;;;;;5026619;28;20211;-56
2022/04/18 02:29:46;;;;;;;1.27;1.20;;;;;;;;;;5024147;28;20224;-57
2022/04/18 02:32:48;;;;;;;1.20;1.20;;;;;;;;;;5024996;28;20294;-56
2022/04/18 02:35:35;;;;;;;1.20;1.20;;;;;;;;;;5020762;28;20214;-56
2022/04/18 02:38:22;;;;;;;1.10;1.10;;;;;;;;;;5023755;28;20738;-56
2022/04/18 02:41:09;;;;;;;1.00;1.00;;;;;;;;;;5023687;28;20225;-55
2022/04/18 02:43:56;;;;;;;1.20;1.20;;;;;;;;;;5021065;28;20241;-56
2022/04/18 02:46:44;;;;;;;1.30;1.30;;;;;;;;;;5028587;28;20207;-56
2022/04/18 02:49:31;;;;;;;1.10;1.10;;;;;;;;;;5024544;28;20306;-56
2022/04/18 02:52:18;;;;;;;1.37;1.33;;;;;;;;;;5018406;28;20240;-56
2022/04/18 02:55:06;;;;;;;1.30;1.30;;;;;;;;;;5022898;28;20702;-56
2022/04/18 02:57:53;;;;;;;1.13;1.13;;;;;;;;;;5023289;28;20264;-56
2022/04/18 03:00:40;;;;;;;1.07;1.07;;;;;;;;;;5022442;28;20291;-56
2022/04/18 03:03:29;;;;;;;1.37;1.27;;;;;;;;;;5023780;28;20285;-56
2022/04/18 03:06:16;;;;;;;1.30;1.30;;;;;;;;;;5021887;28;20702;-56
2022/04/18 03:09:02;;;;;;;1.10;1.10;;;;;;;;;;5025502;28;20231;-56
2022/04/18 03:11:49;;;;;;;1.20;1.17;;;;;;;;;;5022385;28;20357;-57
2022/04/18 03:14:36;;;;;;;1.17;1.17;;;;;;;;;;5024511;28;20864;-55
2022/04/18 03:17:23;;;;;;;1.00;1.00;;;;;;;;;;5020542;28;20211;-56
2022/04/18 03:20:12;;;;;;;0.90;0.90;;;;;;;;;;5025714;28;20744;-56
2022/04/18 03:22:58;;;;;;;1.10;1.00;;;;;;;;;;5024383;28;20303;-56
2022/04/18 03:25:45;;;;;;;1.13;1.13;;;;;;;;;;5021677;28;20414;-56
2022/04/18 03:28:34;;;;;;;0.90;0.90;;;;;;;;;;5022693;28;20240;-56
2022/04/18 03:31:21;;;;;;;1.00;1.00;;;;;;;;;;5023734;28;20289;-56
2022/04/18 03:34:08;;;;;;;1.00;1.00;;;;;;;;;;5021176;28;20626;-56
2022/04/18 03:40:01;;;;;;;1.00;1.00;;;;;;;;;;5022517;28;20214;-56
2022/04/18 03:42:48;;;;;;;0.90;0.90;;;;;;;;;;5023621;28;20310;-57
2022/04/18 03:45:35;;;;;;;0.90;0.90;;;;;;;;;;5024320;28;20300;-56
2022/04/18 03:48:22;;;;;;;1.20;1.10;;;;;;;;;;5026725;28;20255;-56
2022/04/18 03:51:09;;;;;;;1.10;1.10;;;;;;;;;;5020758;28;20293;-55
2022/04/18 03:53:57;;;;;;;0.73;0.73;;;;;;;;;;5025022;28;20726;-56
2022/04/18 03:56:44;;;;;;;1.07;1.07;;;;;;;;;;5022994;28;20303;-56
2022/04/18 03:59:31;;;;;;;1.00;1.00;;;;;;;;;;5020480;28;20676;-56
2022/04/18 04:02:18;;;;;;;1.10;1.10;;;;;;;;;;5019768;28;21057;-57
2022/04/18 04:05:05;;;;;;;1.07;1.07;;;;;;;;;;5019470;28;20216;-56
2022/04/18 04:07:52;;;;;;;1.03;0.93;;;;;;;;;;5020034;28;20250;-56
2022/04/18 04:10:40;;;;;;;1.10;1.10;;;;;;;;;;5018778;28;20247;-56
2022/04/18 04:13:27;;;;;;;1.10;1.10;;;;;;;;;;5021120;28;20273;-56
2022/04/18 04:16:14;;;;;;;0.93;0.93;;;;;;;;;;5023790;28;20353;-57
2022/04/18 04:19:01;;;;;;;0.90;0.90;;;;;;;;;;5022533;28;20211;-55
2022/04/18 04:21:48;;;;;;;1.00;0.80;;;;;;;;;;5021659;28;20304;-56
2022/04/18 04:24:35;;;;;;;1.00;1.00;;;;;;;;;;5021300;28;20212;-56
2022/04/18 04:27:23;;;;;;;1.57;1.10;;;;;;;;;;5023597;28;20299;-56
2022/04/18 04:30:11;;;;;;;1.00;1.00;;;;;;;;;;5020362;28;20211;-56
2022/04/18 04:32:58;;;;;;;1.00;1.00;;;;;;;;;;5023613;28;20294;-56
2022/04/18 04:35:45;;;;;;;1.00;1.00;;;;;;;;;;5024317;28;20350;-57
2022/04/18 04:38:31;;;;;;;1.23;1.00;;;;;;;;;;5023656;28;20242;-56
2022/04/18 04:41:18;;;;;;;0.90;0.90;;;;;;;;;;5020048;28;20320;-56
2022/04/18 04:44:07;;;;;;;0.77;0.77;;;;;;;;;;5024148;28;20206;-56
2022/04/18 04:47:01;;;;;;;1.10;1.10;;;;;;;;;;5150225;27;20531;-56
2022/04/18 04:49:48;;;;;;;1.07;1.07;;;;;;;;;;5114335;28;20752;-56
2022/04/18 04:52:35;;;;;;;0.70;0.70;;;;;;;;;;5110728;28;20251;-56
2022/04/18 04:55:22;;;;;;;0.93;0.93;;;;;;;;;;5112053;28;20209;-56
2022/04/18 04:58:10;;;;;;;0.90;0.90;;;;;;;;;;5114570;28;20206;-56
2022/04/18 05:00:57;;;;;;;0.80;0.80;;;;;;;;;;5114102;28;20206;-56
2022/04/18 05:03:45;;;;;;;0.80;0.80;;;;;;;;;;5128648;27;20277;-56
2022/04/18 05:06:32;;;;;;;1.00;1.00;;;;;;;;;;5137440;27;20951;-56
2022/04/18 05:09:19;;;;;;;0.83;0.83;;;;;;;;;;5132266;27;20233;-56
2022/04/18 05:12:08;;;;;;;0.80;0.80;;;;;;;;;;5127228;27;20205;-57
2022/04/18 05:15:01;;;;;;;0.80;0.80;;;;;;;;;;5130314;27;20208;-56
2022/04/18 05:17:48;;;;;;;0.80;0.80;;;;;;;;;;5122914;27;20233;-56
2022/04/18 05:20:36;;;;;;;0.83;0.83;;;;;;;;;;5136728;27;20283;-56
2022/04/18 05:23:23;;;;;;;0.90;0.90;;;;;;;;;;5134778;27;20218;-56
2022/04/18 05:26:10;;;;;;;0.60;0.60;;;;;;;;;;5133543;27;20254;-57
2022/04/18 05:28:57;;;;;;;0.87;0.87;;;;;;;;;;5128688;27;20237;-56
2022/04/18 05:31:43;;;;;;;0.67;0.67;;;;;;;;;;5130084;27;20743;-56
2022/04/18 05:34:30;;;;;;;1.70;1.60;;;;;;;;;;5127967;27;20206;-56
2022/04/18 05:37:19;;;;;;;2.10;2.00;;;;;;;;;;5134426;27;20239;-56
2022/04/18 05:40:07;;;;;;;2.20;2.10;;;;;;;;;;5140122;27;20208;-55
2022/04/18 05:42:53;;;;;;;2.20;2.10;;;;;;;;;;5114603;27;20291;-56
2022/04/18 05:45:40;;;;;;;2.37;2.27;;;;;;;;;;5136284;27;20401;-56
2022/04/18 05:48:27;;;;;;;2.23;2.13;;;;;;;;;;5131784;27;20215;-56
2022/04/18 05:51:14;;;;;;;2.20;2.10;;;;;;;;;;5139244;27;20710;-56
2022/04/18 05:54:03;;;;;;;2.33;2.23;;;;;;;;;;5137425;27;20689;-56
2022/04/18 05:56:50;;;;;;;2.60;2.50;;;;;;;;;;5121828;27;20588;-56
2022/04/18 05:59:37;;;;;;;2.40;2.30;;;;;;;;;;5117189;27;20236;-56
2022/04/18 06:02:24;;;;;;;2.97;2.80;;;;;;;;;;5114203;27;20215;-56
2022/04/18 06:05:10;;;;;;;2.80;2.70;;;;;;;;;;5119023;27;20274;-56
2022/04/18 06:07:57;;;;;;;2.80;2.70;;;;;;;;;;5117822;27;20298;-57
2022/04/18 06:10:46;;;;;;;2.70;2.60;;;;;;;;;;5118579;27;20253;-57
2022/04/18 06:13:33;;;;;;;2.67;2.57;;;;;;;;;;5111648;27;20228;-54
2022/04/18 06:16:20;;;;;;;2.67;2.58;;;;;;;;;;5106836;27;20205;-54
2022/04/18 06:19:07;;;;;;;2.88;2.70;;;;;;;;;;5120339;27;20299;-54
2022/04/18 06:21:54;;;;;;;2.70;2.60;;;;;;;;;;5113577;27;20682;-55
2022/04/18 06:24:41;;;;;;;2.38;2.28;;;;;;;;;;5108862;27;20250;-55
2022/04/18 06:27:30;;;;;;;2.60;2.40;;;;;;;;;;5116081;27;20233;-55
2022/04/18 06:30:17;;;;;;;2.22;2.13;;;;;;;;;;5122403;27;20213;-55
2022/04/18 06:33:03;;;;;;;2.65;2.45;;;;;;;;;;5115665;27;20291;-55
2022/04/18 06:35:51;;;;;;;2.35;2.25;;;;;;;;;;5126363;27;20318;-55
2022/04/18 06:38:38;;;;;;;2.20;2.10;;;;;;;;;;5115939;27;20230;-55
2022/04/18 06:41:24;;;;;;;2.10;2.00;;;;;;;;;;5109389;27;20229;-56
2022/04/18 06:44:13;;;;;;;2.17;2.08;;;;;;;;;;5104008;27;20261;-56
2022/04/18 06:47:00;;;;;;;2.10;2.00;;;;;;;;;;5111817;27;20369;-56
2022/04/18 06:49:47;;;;;;;2.20;2.00;;;;;;;;;;5121164;27;20674;-55
2022/04/18 06:52:38;;;;;;;1.90;1.90;;;;;;;;;;5125021;27;20257;-55
2022/04/18 06:55:25;;;;;;;2.20;2.10;;;;;;;;;;5107510;27;20205;-55
2022/04/18 06:58:11;;;;;;;2.05;1.95;;;;;;;;;;5115274;27;20368;-55
2022/04/18 07:00:59;;;;;;;1.77;1.67;;;;;;;;;;5115240;27;20591;-55
2022/04/18 07:03:46;;;;;;;1.58;1.58;;;;;;;;;;5116699;27;20618;-53
2022/04/18 07:06:33;;;;;;;1.88;1.80;;;;;;;;;;5113631;27;20260;-52
2022/04/18 07:09:20;;;;;;;1.50;1.50;;;;;;;;;;5115373;27;20786;-53
2022/04/18 07:12:08;;;;;;;1.70;1.70;;;;;;;;;;5116078;27;20288;-53
2022/04/18 07:14:58;;;;;;;1.88;1.77;;;;;;;;;;5110317;27;20327;-53
2022/04/18 07:17:47;;;;;;;1.55;1.55;;;;;;;;;;5113975;27;20199;-53
2022/04/18 07:20:33;;;;;;;1.80;1.70;;;;;;;;;;5114072;27;20278;-54
2022/04/18 07:23:20;;;;;;;1.80;1.70;;;;;;;;;;5114874;27;20293;-54
2022/04/18 07:26:07;;;;;;;1.75;1.65;;;;;;;;;;5112701;27;20229;-54
2022/04/18 07:28:54;;;;;;;1.25;1.25;;;;;;;;;;5115158;27;20252;-54
2022/04/18 07:31:41;;;;;;;1.30;1.30;;;;;;;;;;5107555;27;20288;-55
2022/04/18 07:34:30;;;;;;;1.40;1.40;;;;;;;;;;5113657;27;20673;-54
2022/04/18 07:37:17;;;;;;;1.40;1.40;;;;;;;;;;5119687;27;20202;-54
2022/04/18 07:40:04;;;;;;;1.38;1.38;;;;;;;;;;5115825;27;20296;-55
2022/04/18 07:42:51;;;;;;;1.13;1.13;;;;;;;;;;5109004;27;20296;-55
2022/04/18 07:45:38;;;;;;;1.23;1.23;;;;;;;;;;5111856;27;20238;-55
2022/04/18 07:48:25;;;;;;;1.45;1.45;;;;;;;;;;5120663;27;20205;-57
2022/04/18 07:54:20;;;;;;;1.40;1.40;;;;;;;;;;5107150;27;20270;-55
2022/04/18 07:57:07;;;;;;;1.40;1.40;;;;;;;;;;5114709;27;20197;-55
2022/04/18 07:59:54;;;;;;;1.10;1.10;;;;;;;;;;5117503;27;20315;-55
2022/04/18 08:02:41;;;;;;;1.13;1.13;;;;;;;;;;5115559;27;20236;-56
2022/04/18 08:05:28;;;;;;;1.10;1.10;;;;;;;;;;5120838;27;20574;-55
2022/04/18 08:08:16;;;;;;;1.15;1.15;;;;;;;;;;5104580;27;20324;-56
2022/04/18 08:11:03;;;;;;;1.20;1.20;;;;;;;;;;5119720;27;20242;-54
2022/04/18 08:13:51;;;;;;;1.00;1.00;;;;;;;;;;5110561;27;20407;-55
2022/04/18 08:16:38;;;;;;;1.27;1.27;;;;;;;;;;5117862;27;20615;-55
2022/04/18 08:19:25;;;;;;;1.33;1.33;;;;;;;;;;5118115;27;20329;-54
2022/04/18 08:22:12;;;;;;;1.02;1.02;;;;;;;;;;5121818;27;20292;-54
2022/04/18 08:25:00;;;;;;;1.10;1.10;;;;;;;;;;5111364;27;20552;-54
2022/04/18 08:27:47;;;;;;;1.00;1.00;;;;;;;;;;5110084;27;20225;-54
2022/04/18 08:30:34;;;;;;;1.02;1.02;;;;;;;;;;5116598;27;20702;-53
2022/04/18 08:33:22;;;;;;;0.80;0.80;;;;;;;;;;5104582;28;20336;-54
2022/04/18 08:36:09;;;;;;;1.13;1.02;;;;;;;;;;5116841;27;20210;-55
2022/04/18 08:38:56;;;;;;;0.90;0.90;;;;;;;;;;5108904;27;20218;-55
2022/04/18 08:41:48;;;;;;;1.10;1.10;;;;;;;;;;5114628;27;20242;-55
2022/04/18 08:44:37;;;;;;;0.95;0.95;;;;;;;;;;5116516;28;20570;-55
2022/04/18 08:53:34;;;;;;;0.85;0.85;;;;;;;;;;5112642;28;20271;-54
2022/04/18 08:56:21;;;;;;;0.77;0.77;;;;;;;;;;5115629;28;20210;-55
2022/04/18 08:59:10;;;;;;;1.48;0.85;;;;;;;;;;5111419;28;20329;-54
2022/04/18 09:01:57;;;;;;;1.00;1.00;;;;;;;;;;5115255;28;20208;-54
2022/04/18 09:04:45;;;;;;;0.93;0.93;;;;;;;;;;5112762;28;20741;-55
2022/04/18 09:07:33;;;;;;;0.77;0.77;;;;;;;;;;5103819;28;20309;-55
2022/04/18 09:10:23;;;;;;;0.93;0.93;;;;;;;;;;5117215;28;20209;-55
2022/04/18 09:13:11;;;;;;;0.70;0.70;;;;;;;;;;5116875;28;20304;-54
2022/04/18 09:16:00;;;;;;;0.77;0.77;;;;;;;;;;5116425;28;20194;-54
2022/04/18 09:18:47;;;;;;;1.60;0.88;;;;;;;;;;5112509;28;20286;-55
2022/04/18 09:21:34;;;;;;;0.98;0.98;;;;;;;;;;5115138;28;20280;-55
2022/04/18 09:24:31;;;;;;;0.77;0.77;;;;;;;;;;5118111;28;20315;-56
2022/04/18 09:27:27;;;;;;;0.60;0.60;;;;;;;;;;5116905;28;20271;-56
2022/04/18 09:30:16;;;;;;;0.90;0.90;;;;;;;;;;5107538;28;20223;-56
2022/04/18 09:33:06;;;;;;;0.77;0.77;;;;;;;;;;5112131;27;20198;-55
2022/04/18 09:35:52;;;;;;;0.85;0.80;;;;;;;;;;5125040;27;20206;-56
2022/04/18 09:38:43;;;;;;;0.90;0.90;;;;;;;;;;5111964;27;20700;-55
2022/04/18 09:41:31;;;;;;;0.68;0.68;;;;;;;;;;5112824;27;20241;-55
2022/04/18 09:44:26;;;;;;;0.70;0.70;;;;;;;;;;5112029;27;20211;-55
2022/04/18 09:47:17;;;;;;;0.88;0.82;;;;;;;;;;5091843;27;20757;-56
2022/04/18 09:50:58;;;;;;;1.13;1.02;;;;;;;;;;5090351;27;20225;-55
2022/04/18 09:53:26;;;;;;;0.80;0.80;;;;;;;;;;5109547;27;20631;-55
2022/04/18 09:56:15;;;;;;;0.85;0.80;;;;;;;;;;5106000;27;20228;-56
2022/04/18 09:59:04;;;;;;;3.40;0.80;;;;;;;;;;5111760;27;20643;-55
2022/04/18 10:01:52;;;;;;;0.57;0.57;;;;;;;;;;5114956;27;20211;-55
2022/04/18 10:04:39;;;;;;;0.70;0.55;;;;;;;;;;5113314;27;20230;-55
2022/04/18 10:07:28;;;;;;;0.82;0.82;;;;;;;;;;5111676;27;20433;-55
2022/04/18 10:10:15;;;;;;;0.80;0.80;;;;;;;;;;5113538;27;20211;-55
2022/04/18 10:13:03;;;;;;;0.63;0.63;;;;;;;;;;5106207;27;20234;-55
2022/04/18 10:15:51;;;;;;;0.55;0.50;;;;;;;;;;5122764;27;20314;-55
2022/04/18 10:18:46;;;;;;;0.65;0.65;;;;;;;;;;5115537;27;20223;-56
2022/04/18 10:21:33;;;;;;;0.88;0.70;;;;;;;;;;5116240;27;20390;-55
2022/04/18 10:24:43;;;;;;;0.90;0.70;;;;;;;;;;5121537;27;20279;-56
2022/04/18 10:27:59;;;;;;;0.70;0.70;;;;;;;;;;5110985;27;20719;-55
2022/04/18 10:30:50;;;;;;;0.60;0.60;;;;;;;;;;5111764;27;20288;-56
2022/04/18 10:33:38;;;;;;;0.80;0.80;;;;;;;;;;5110806;27;20233;-56
2022/04/18 10:36:27;;;;;;;0.63;0.63;;;;;;;;;;5116647;27;20211;-55
2022/04/18 10:39:14;;;;;;;0.65;0.65;;;;;;;;;;5112422;27;20214;-55
2022/04/18 10:45:02;;;;;;;0.70;0.70;;;;;;;;;;5145798;27;20536;-56
2022/04/18 10:48:09;;;;;;;0.65;0.65;;;;;;;;;;5112704;28;20350;-57
2022/04/18 10:50:57;;;;;;;0.63;0.63;;;;;;;;;;5111237;28;20727;-56
2022/04/18 10:53:44;;;;;;;0.70;0.70;;;;;;;;;;5114367;27;20576;-57
2022/04/18 10:56:46;;;;;;;1.85;0.60;;;;;;;;;;5130569;27;20255;-54
2022/04/18 10:59:35;;;;;;;0.65;0.60;;;;;;;;;;5124729;27;20201;-57
2022/04/18 11:02:39;;;;;;;0.82;0.65;;;;;;;;;;5134851;27;20352;-56
2022/04/18 11:05:36;;;;;;;0.80;0.80;;;;;;;;;;5133612;27;20686;-56
2022/04/18 11:08:24;;;;;;;0.70;0.70;;;;;;;;;;5133587;27;20280;-56
2022/04/18 11:11:16;;;;;;;0.73;0.60;;;;;;;;;;5127121;27;20204;-56
2022/04/18 11:14:14;;;;;;;0.80;0.80;;;;;;;;;;5125778;27;20225;-57
2022/04/18 11:17:02;;;;;;;0.80;0.80;;;;;;;;;;5130556;27;20583;-56
2022/04/18 11:19:51;;;;;;;0.50;0.50;;;;;;;;;;5129549;27;20276;-54
2022/04/18 11:22:37;;;;;;;0.98;0.98;;;;;;;;;;5129615;27;20614;-54
2022/04/18 11:25:25;;;;;;;0.80;0.80;;;;;;;;;;5132526;27;20207;-55
2022/04/18 11:28:13;;;;;;;0.70;0.70;;;;;;;;;;5125918;27;20202;-55
2022/04/18 11:31:00;;;;;;;0.60;0.60;;;;;;;;;;5133510;27;20215;-56
2022/04/18 11:33:47;;;;;;;0.70;0.70;;;;;;;;;;5131774;27;20821;-55
2022/04/18 11:36:36;;;;;;;0.60;0.60;;;;;;;;;;5131871;27;20203;-55
2022/04/18 11:39:23;;;;;;;0.60;0.60;;;;;;;;;;5131141;27;20290;-55
2022/04/18 11:42:15;;;;;;;0.73;0.73;;;;;;;;;;5131810;27;20287;-55
2022/04/18 11:45:04;;;;;;;0.57;0.57;;;;;;;;;;5121698;27;20245;-57
2022/04/18 11:47:52;;;;;;;0.60;0.60;;;;;;;;;;5129459;27;20691;-56
2022/04/18 11:50:42;;;;;;;0.70;0.70;;;;;;;;;;5129527;27;20676;-59
2022/04/18 11:53:33;;;;;;;0.70;0.70;;;;;;;;;;5119771;27;20673;-56
2022/04/18 11:56:23;;;;;;;0.97;0.97;;;;;;;;;;5110692;27;20307;-56
2022/04/18 11:59:10;;;;;;;0.60;0.60;;;;;;;;;;5116100;27;20288;-55
2022/04/18 12:08:13;;;;;;;0.63;0.63;;;;;;;;;;5111135;27;20282;-55
2022/04/18 12:11:01;;;;;;;0.67;0.67;;;;;;;;;;5109577;27;20659;-55
2022/04/18 12:13:49;;;;;;;0.70;0.70;;;;;;;;;;5116195;27;20282;-55
2022/04/18 12:16:39;;;;;;;0.60;0.60;;;;;;;;;;5119320;27;20620;-55
2022/04/18 12:19:29;;;;;;;0.57;0.57;;;;;;;;;;5114754;27;20344;-55
2022/04/18 12:22:22;;;;;;;0.53;0.53;;;;;;;;;;5115150;27;20290;-56
2022/04/18 12:25:10;;;;;;;1.80;0.70;;;;;;;;;;5112651;27;20244;-56
2022/04/18 12:27:59;;;;;;;0.60;0.60;;;;;;;;;;5116987;27;20565;-56
2022/04/18 12:30:47;;;;;;;0.80;0.80;;;;;;;;;;5120659;27;20210;-56
2022/04/18 12:33:34;;;;;;;0.53;0.53;;;;;;;;;;5115369;27;20654;-55
2022/04/18 12:36:24;;;;;;;0.50;0.50;;;;;;;;;;5119565;27;20286;-61
2022/04/18 12:39:20;;;;;;;0.67;0.67;;;;;;;;;;5112376;27;20207;-55
2022/04/18 12:42:09;;;;;;;0.60;0.60;;;;;;;;;;5119920;27;20244;-56
2022/04/18 12:44:58;;;;;;;0.80;0.80;;;;;;;;;;5124121;27;20234;-56
2022/04/18 12:47:45;;;;;;;0.80;0.80;;;;;;;;;;5114048;27;20214;-57
2022/04/18 12:50:34;;;;;;;0.80;0.80;;;;;;;;;;5111793;27;20221;-56
2022/04/18 12:53:22;;;;;;;0.77;0.70;;;;;;;;;;5107404;27;20300;-56
2022/04/18 12:56:10;;;;;;;0.67;0.67;;;;;;;;;;5122099;27;20257;-57
2022/04/18 12:59:03;;;;;;;0.53;0.53;;;;;;;;;;5116422;27;20216;-56
2022/04/18 13:01:52;;;;;;;0.50;0.50;;;;;;;;;;5119924;27;20248;-57
2022/04/18 13:04:39;;;;;;;0.80;0.80;;;;;;;;;;5116073;27;20346;-56
2022/04/18 13:07:26;;;;;;;0.80;0.80;;;;;;;;;;5117923;27;20560;-56
2022/04/18 13:10:13;;;;;;;0.50;0.50;;;;;;;;;;5116235;27;20282;-56
2022/04/18 13:13:05;;;;;;;0.60;0.60;;;;;;;;;;5110659;27;20289;-57
2022/04/18 13:15:52;;;;;;;0.73;0.73;;;;;;;;;;5117145;27;20270;-56
2022/04/18 13:18:40;;;;;;;0.60;0.60;;;;;;;;;;5106785;27;20753;-56
2022/04/18 13:21:28;;;;;;;1.23;0.60;;;;;;;;;;5121694;27;20253;-55
2022/04/18 13:24:15;;;;;;;0.53;0.53;;;;;;;;;;5120700;27;20231;-57
2022/04/18 13:27:02;;;;;;;0.90;0.90;;;;;;;;;;5118922;27;20341;-55
2022/04/18 13:29:49;;;;;;;0.60;0.60;;;;;;;;;;5117207;27;20252;-56
2022/04/18 13:32:36;;;;;;;0.50;0.50;;;;;;;;;;5113423;27;20315;-56
2022/04/18 13:35:24;;;;;;;0.80;0.80;;;;;;;;;;5122496;27;20591;-56
2022/04/18 13:38:11;;;;;;;0.70;0.70;;;;;;;;;;5115180;27;20565;-56
2022/04/18 13:40:58;;;;;;;1.57;0.70;;;;;;;;;;5125545;27;20288;-56
2022/04/18 13:43:45;;;;;;;0.70;0.70;;;;;;;;;;5115379;27;20309;-56
2022/04/18 13:46:33;;;;;;;0.60;0.60;;;;;;;;;;5115697;27;20239;-56
2022/04/18 13:49:20;;;;;;;0.50;0.50;;;;;;;;;;5115550;27;20687;-56
2022/04/18 13:52:09;;;;;;;0.60;0.60;;;;;;;;;;5114486;27;20214;-56
2022/04/18 13:54:56;;;;;;;0.50;0.50;;;;;;;;;;5113784;27;20198;-56
2022/04/18 13:57:43;;;;;;;0.60;0.60;;;;;;;;;;5111307;27;20904;-56
2022/04/18 14:00:30;;;;;;;0.50;0.50;;;;;;;;;;5115479;27;20666;-55
2022/04/18 14:03:17;;;;;;;0.83;0.83;;;;;;;;;;5115177;27;20264;-56
2022/04/18 14:06:05;;;;;;;0.80;0.80;;;;;;;;;;5110248;27;20806;-57
2022/04/18 14:08:54;;;;;;;0.90;0.90;;;;;;;;;;5113301;27;20684;-56
2022/04/18 14:11:41;;;;;;;0.70;0.70;;;;;;;;;;5112421;27;20291;-55
2022/04/18 14:20:38;;;;;;;0.60;0.60;;;;;;;;;;5120448;27;20208;-56
2022/04/18 14:23:25;;;;;;;0.87;0.87;;;;;;;;;;5122734;27;20201;-56
2022/04/18 14:26:15;;;;;;;0.90;0.90;;;;;;;;;;5117259;27;20202;-56
2022/04/18 14:29:02;;;;;;;1.50;0.70;;;;;;;;;;5108843;27;20209;-56
2022/04/18 14:31:50;;;;;;;0.53;0.53;;;;;;;;;;5105603;28;20690;-56
2022/04/18 14:34:37;;;;;;;0.80;0.70;;;;;;;;;;5114144;27;20209;-56
2022/04/18 14:37:25;;;;;;;0.80;0.80;;;;;;;;;;5115789;27;20642;-57
2022/04/18 14:40:12;;;;;;;0.70;0.70;;;;;;;;;;5112130;27;20264;-56
2022/04/18 14:43:01;;;;;;;0.60;0.60;;;;;;;;;;5109640;28;20204;-55
2022/04/18 14:45:48;;;;;;;0.60;0.60;;;;;;;;;;5108915;28;20720;-56
2022/04/18 14:48:35;;;;;;;1.00;1.00;;;;;;;;;;5110832;28;20249;-56
2022/04/18 14:51:22;;;;;;;0.90;0.90;;;;;;;;;;5106396;28;20287;-55
2022/04/18 14:54:09;;;;;;;1.13;1.13;;;;;;;;;;5108844;28;20320;-56
2022/04/18 14:56:56;;;;;;;0.70;0.70;;;;;;;;;;5104377;28;20293;-56
2022/04/18 14:59:46;;;;;;;1.00;0.90;;;;;;;;;;5112671;28;20215;-56
2022/04/18 15:02:33;;;;;;;1.37;0.97;;;;;;;;;;5115914;28;20209;-56
2022/04/18 15:05:20;;;;;;;0.97;0.90;;;;;;;;;;5113663;28;20306;-56
2022/04/18 15:08:08;;;;;;;1.10;1.00;;;;;;;;;;5111727;28;20232;-56
2022/04/18 15:10:55;;;;;;;0.87;0.87;;;;;;;;;;5106710;28;20210;-56
2022/04/18 15:13:42;;;;;;;0.80;0.80;;;;;;;;;;5110156;28;20271;-55
2022/04/18 15:16:30;;;;;;;0.80;0.80;;;;;;;;;;5108949;28;20214;-55
2022/04/18 15:19:18;;;;;;;0.80;0.80;;;;;;;;;;5115943;28;20292;-56
2022/04/18 15:22:05;;;;;;;1.10;1.00;;;;;;;;;;5120927;28;20211;-55
2022/04/18 15:24:52;;;;;;;1.00;1.00;;;;;;;;;;5107334;28;20267;-55
2022/04/18 15:27:39;;;;;;;1.07;0.90;;;;;;;;;;5118336;28;20302;-65
2022/04/18 15:33:32;;;;;;;1.00;0.80;;;;;;;;;;5121027;27;20242;-55
2022/04/18 15:36:19;;;;;;;0.90;0.90;;;;;;;;;;5111958;27;20217;-56
2022/04/18 15:39:06;;;;;;;1.00;1.00;;;;;;;;;;5117683;27;20743;-55
2022/04/18 15:41:53;;;;;;;0.97;0.97;;;;;;;;;;5118083;27;20244;-55
2022/04/18 15:44:40;;;;;;;1.17;1.17;;;;;;;;;;5118459;27;20656;-56
2022/04/18 15:47:27;;;;;;;0.87;0.87;;;;;;;;;;5115675;27;20263;-55
2022/04/18 15:50:15;;;;;;;1.00;1.00;;;;;;;;;;5119599;27;20214;-56
2022/04/18 15:53:02;;;;;;;1.23;1.03;;;;;;;;;;5116694;27;20271;-55
2022/04/18 15:55:49;;;;;;;0.97;0.97;;;;;;;;;;5109864;27;20240;-56
2022/04/18 15:58:37;;;;;;;1.10;1.10;;;;;;;;;;5111321;27;20752;-56
2022/04/18 16:01:23;;;;;;;1.07;1.07;;;;;;;;;;5117528;27;20734;-55
2022/04/18 16:04:10;;;;;;;1.63;1.00;;;;;;;;;;5113373;27;20339;-55
2022/04/18 16:06:59;;;;;;;1.03;0.97;;;;;;;;;;5113118;27;20322;-75
2022/04/18 16:09:46;;;;;;;1.50;0.90;;;;;;;;;;5112624;27;20241;-56
2022/04/18 16:12:33;;;;;;;1.40;1.30;;;;;;;;;;5117245;27;20334;-56
2022/04/18 16:15:20;;;;;;;1.17;1.17;;;;;;;;;;5116407;27;20209;-56
2022/04/18 16:18:07;;;;;;;1.17;1.10;;;;;;;;;;5114192;27;20290;-56
2022/04/18 16:20:54;;;;;;;1.27;1.00;;;;;;;;;;5113664;27;20306;-55
2022/04/18 16:23:42;;;;;;;1.10;1.10;;;;;;;;;;5116272;27;20300;-55
2022/04/18 16:26:29;;;;;;;1.43;0.90;;;;;;;;;;5116346;27;20205;-56
2022/04/18 16:32:21;;;;;;;0.87;0.67;;;;;;;;;;5113179;27;20563;-56
2022/04/18 16:35:09;;;;;;;0.93;0.93;;;;;;;;;;5108732;27;20215;-55
2022/04/18 16:37:55;;;;;;;1.20;1.13;;;;;;;;;;5112305;27;20284;-60
2022/04/18 16:46:49;;;;;;;0.90;0.90;;;;;;;;;;5112968;27;20231;-56
2022/04/18 16:49:36;;;;;;;1.30;1.20;;;;;;;;;;5106816;27;20233;-56
2022/04/18 16:52:22;;;;;;;1.03;1.03;;;;;;;;;;5114487;27;20275;-55
2022/04/18 16:55:10;;;;;;;1.00;1.00;;;;;;;;;;5114647;27;20282;-56
2022/04/18 16:57:58;;;;;;;0.83;0.80;;;;;;;;;;5113393;27;20211;-56
2022/04/18 17:00:45;;;;;;;0.90;0.90;;;;;;;;;;5114583;27;20235;-56
2022/04/18 17:03:32;;;;;;;1.00;1.00;;;;;;;;;;5112842;27;20728;-55
2022/04/18 17:06:19;;;;;;;0.90;0.90;;;;;;;;;;5114054;27;20787;-57
2022/04/18 17:09:07;;;;;;;0.70;0.70;;;;;;;;;;5111185;27;20214;-56
2022/04/18 17:11:53;;;;;;;0.90;0.90;;;;;;;;;;5113759;27;20294;-56
2022/04/18 17:14:42;;;;;;;0.90;0.90;;;;;;;;;;5108691;27;20233;-56
2022/04/18 17:17:29;;;;;;;1.00;1.00;;;;;;;;;;5112207;27;20291;-55
2022/04/18 17:20:16;;;;;;;1.10;0.97;;;;;;;;;;5113872;27;20701;-56
2022/04/18 17:23:02;;;;;;;1.17;1.07;;;;;;;;;;5107012;27;20207;-59
2022/04/18 17:25:49;;;;;;;1.00;1.00;;;;;;;;;;5115917;27;20223;-56
2022/04/18 17:28:36;;;;;;;0.90;0.90;;;;;;;;;;5113228;27;20275;-55
2022/04/18 17:31:24;;;;;;;1.07;1.00;;;;;;;;;;5107553;27;20329;-56
2022/04/18 17:34:11;;;;;;;0.87;0.87;;;;;;;;;;5112090;27;20269;-56